KUKT/UKT METAR and TAF weather

Enter ICAO airport designator
Station Type Date Time Source
KUKT METAR 2020/08/07 11:55 UTC NOAA

KUKT 071155Z AUTO VRB05KT 9SM FEW008 BKN019 OVC037 20/20 A3014 RMK A01 P0001


Station Type Date Time Source
KUKT Decoded METAR 2020/08/07 11:55 UTC NOAA

Quakertown, Quakertown Airport, PA, United States (KUKT) 40-26-06N 075-22-54W
Aug 07, 2020 - 07:55 AM EDT / 2020.08.07 1155 UTC
Wind: Variable at 6 MPH (5 KT):0
Visibility: 9 mile(s):0
Sky conditions: overcast
Precipitation last hour: 0.01 inches
Temperature: 68 F (20 C)
Dew Point: 68 F (20 C)
Relative Humidity: 100%
Pressure (altimeter): 30.14 in. Hg (1020 hPa)
ob: KUKT 071155Z AUTO VRB05KT 9SM FEW008 BKN019 OVC037 20/20 A3014 RMK A01 P0001
cycle: 12

Station Type Date Time Source
KUKT TAF UTC NOAA

Error!

Example: see airport list